Time;durP1;ratioP1;P1;durP2;ratioP2;P2;SDS_P1;SDS_P2;PMS_P1;PMS_P2;Temp;Humidity;BMP_temperature;BMP_pressure;BME280_temperature;BME280_humidity;BME280_pressure;Samples;Min_cycle;Max_cycle;Signal;HPM_P1;HPM_P2
2023/01/09 05:01:53;;;;;;;1.03;0.80;;;6.60;99.90;;;;;;5344128;23;20545;-72
2023/01/09 05:04:20;;;;;;;0.80;0.80;;;6.60;99.90;;;;;;4969969;28;20605;-72
2023/01/09 05:06:47;;;;;;;0.77;0.70;;;6.60;99.90;;;;;;4968848;28;20452;-72
2023/01/09 05:09:13;;;;;;;1.43;1.00;;;6.60;99.90;;;;;;4969692;28;20805;-72
2023/01/09 05:11:40;;;;;;;1.77;0.90;;;6.60;99.90;;;;;;4969411;28;21018;-72
2023/01/09 05:14:07;;;;;;;2.07;0.80;;;6.60;99.90;;;;;;4969768;28;20820;-72
2023/01/09 05:16:34;;;;;;;2.07;0.87;;;6.60;99.90;;;;;;4968844;28;20499;-72
2023/01/09 05:19:02;;;;;;;1.20;1.00;;;6.60;99.90;;;;;;4969599;28;20479;-72
2023/01/09 05:21:29;;;;;;;0.80;0.70;;;6.60;99.90;;;;;;4969013;28;20996;-72
2023/01/09 05:23:56;;;;;;;2.40;0.90;;;6.70;99.90;;;;;;4969848;28;20467;-72
2023/01/09 05:26:23;;;;;;;0.90;0.90;;;6.60;99.90;;;;;;4968796;28;20459;-72
2023/01/09 05:28:50;;;;;;;0.90;0.90;;;6.60;99.90;;;;;;4969211;28;20703;-72
2023/01/09 05:31:17;;;;;;;1.50;1.40;;;6.60;99.90;;;;;;4968991;28;20479;-72
2023/01/09 05:33:44;;;;;;;2.50;1.40;;;6.60;99.90;;;;;;4968768;28;20970;-72
2023/01/09 05:36:12;;;;;;;1.10;0.97;;;6.60;99.90;;;;;;4968680;28;20496;-72
2023/01/09 05:38:39;;;;;;;1.17;1.10;;;6.50;99.90;;;;;;4969076;28;20763;-72
2023/01/09 05:41:07;;;;;;;1.03;1.00;;;6.60;99.90;;;;;;4969542;28;20480;-72
2023/01/09 05:43:34;;;;;;;5.53;1.40;;;6.60;99.90;;;;;;4969179;28;20506;-72
2023/01/09 05:46:00;;;;;;;1.20;1.10;;;6.70;99.90;;;;;;4968496;28;20440;-72
2023/01/09 05:48:27;;;;;;;2.77;1.10;;;6.60;99.90;;;;;;4968643;28;20472;-72
2023/01/09 05:50:54;;;;;;;2.60;1.00;;;6.60;99.90;;;;;;4969125;28;20477;-72
2023/01/09 05:53:22;;;;;;;2.30;1.67;;;6.60;99.90;;;;;;4967834;28;20983;-72
2023/01/09 05:55:49;;;;;;;2.43;1.40;;;6.60;99.90;;;;;;4968392;28;20452;-72
2023/01/09 05:58:15;;;;;;;3.60;1.30;;;6.60;99.90;;;;;;4968543;28;20802;-72
2023/01/09 06:00:42;;;;;;;2.10;1.30;;;6.60;99.90;;;;;;4968528;28;20483;-72
2023/01/09 06:03:09;;;;;;;1.40;1.00;;;6.60;99.90;;;;;;4968453;28;20463;-72
2023/01/09 06:05:36;;;;;;;2.10;1.57;;;6.60;99.90;;;;;;4968340;28;20456;-72
2023/01/09 06:08:02;;;;;;;2.13;1.30;;;6.50;99.90;;;;;;4968066;28;20456;-72
2023/01/09 06:10:31;;;;;;;2.30;1.30;;;6.60;99.90;;;;;;4968365;28;20466;-72
2023/01/09 06:12:57;;;;;;;1.53;1.43;;;6.60;99.90;;;;;;4968188;28;20475;-72
2023/01/09 06:15:24;;;;;;;2.13;1.30;;;6.60;99.90;;;;;;4967602;28;20817;-72
2023/01/09 06:17:51;;;;;;;1.40;1.30;;;6.70;99.90;;;;;;4967663;28;20732;-72
2023/01/09 06:20:18;;;;;;;1.40;1.30;;;6.70;99.90;;;;;;4967858;28;20891;-72
2023/01/09 06:22:44;;;;;;;2.60;1.60;;;6.70;99.90;;;;;;4968008;28;20460;-72
2023/01/09 06:25:13;;;;;;;1.70;1.50;;;6.60;99.90;;;;;;4968209;28;20448;-72
2023/01/09 06:27:41;;;;;;;1.53;1.20;;;6.60;99.90;;;;;;4967571;28;20464;-72
2023/01/09 06:30:09;;;;;;;3.73;1.70;;;6.50;99.90;;;;;;4967595;28;20567;-72
2023/01/09 06:32:36;;;;;;;3.10;1.77;;;6.50;99.90;;;;;;4967913;28;20476;-65
2023/01/09 06:35:03;;;;;;;1.60;1.40;;;6.50;99.90;;;;;;4967873;28;21258;-67
2023/01/09 06:37:29;;;;;;;4.97;1.70;;;6.40;99.90;;;;;;4967239;28;20583;-73
2023/01/09 06:39:56;;;;;;;3.53;1.60;;;6.40;99.90;;;;;;4968030;28;20463;-73
2023/01/09 06:42:23;;;;;;;5.87;1.80;;;6.40;99.90;;;;;;4967515;28;20476;-74
2023/01/09 06:44:51;;;;;;;1.50;1.40;;;6.30;99.90;;;;;;4967883;28;20465;-75
2023/01/09 06:47:18;;;;;;;1.60;1.40;;;6.30;99.90;;;;;;4966924;28;20444;-71
2023/01/09 06:49:45;;;;;;;1.40;1.30;;;6.30;99.90;;;;;;4967736;28;20452;-71
2023/01/09 06:52:12;;;;;;;3.57;2.60;;;6.30;99.90;;;;;;4967938;28;20487;-74
2023/01/09 06:54:39;;;;;;;3.30;2.23;;;6.30;99.90;;;;;;4968036;28;20460;-72
2023/01/09 06:57:06;;;;;;;6.53;3.00;;;6.30;99.90;;;;;;4967445;28;20496;-72
2023/01/09 06:59:32;;;;;;;5.93;2.27;;;6.40;99.90;;;;;;4968262;28;20461;-71
2023/01/09 07:02:00;;;;;;;2.13;1.70;;;6.50;99.90;;;;;;4967922;28;20488;-73
2023/01/09 07:04:27;;;;;;;4.30;1.50;;;6.50;99.90;;;;;;4967968;28;20452;-72
2023/01/09 07:06:54;;;;;;;1.63;1.20;;;6.50;99.90;;;;;;4967101;28;20832;-72
2023/01/09 07:09:21;;;;;;;2.97;1.80;;;6.60;99.90;;;;;;4967582;28;20448;-74
2023/01/09 07:11:48;;;;;;;3.10;1.70;;;6.50;99.90;;;;;;4965541;28;20472;-71
2023/01/09 07:14:14;;;;;;;3.10;1.30;;;6.40;99.90;;;;;;4967861;28;20555;-71
2023/01/09 07:16:41;;;;;;;2.63;1.53;;;6.40;99.90;;;;;;4966493;28;20493;-72
2023/01/09 07:19:09;;;;;;;2.90;1.37;;;6.40;99.90;;;;;;4967958;28;20452;-72
2023/01/09 07:21:36;;;;;;;1.67;1.27;;;6.40;99.90;;;;;;4967411;28;21215;-72
2023/01/09 07:24:03;;;;;;;1.60;1.40;;;6.30;99.90;;;;;;4966918;28;20457;-71
2023/01/09 07:26:30;;;;;;;1.80;1.57;;;6.30;99.90;;;;;;4965982;28;20449;-71
2023/01/09 07:28:56;;;;;;;2.50;1.50;;;6.30;99.90;;;;;;4967200;28;20984;-72
2023/01/09 07:31:23;;;;;;;3.10;1.50;;;6.30;99.90;;;;;;4967100;28;20476;-70
2023/01/09 07:33:50;;;;;;;2.60;1.43;;;6.30;99.90;;;;;;4966888;28;20463;-71
2023/01/09 07:36:18;;;;;;;1.77;1.40;;;6.30;99.90;;;;;;4966593;28;20484;-72
2023/01/09 07:38:45;;;;;;;1.70;1.27;;;6.30;99.90;;;;;;4967197;28;20455;-71
2023/01/09 07:41:12;;;;;;;1.37;1.20;;;6.30;99.90;;;;;;4967310;28;20479;-70
2023/01/09 07:43:39;;;;;;;4.17;1.40;;;6.30;99.90;;;;;;4967143;28;20460;-71
2023/01/09 07:46:06;;;;;;;2.70;1.20;;;6.30;99.90;;;;;;4966582;28;20467;-73
2023/01/09 07:48:33;;;;;;;4.03;1.30;;;6.30;99.90;;;;;;4967442;28;20479;-72
2023/01/09 07:50:59;;;;;;;2.70;1.43;;;6.30;99.90;;;;;;4966853;28;20469;-72
2023/01/09 07:53:28;;;;;;;2.53;1.40;;;6.30;99.90;;;;;;4966899;28;20466;-72
2023/01/09 07:55:55;;;;;;;1.95;1.10;;;6.20;99.90;;;;;;4966165;28;20476;-72
2023/01/09 07:58:21;;;;;;;1.80;1.37;;;6.30;99.90;;;;;;4967219;28;20241;-72
2023/01/09 08:00:50;;;;;;;3.73;1.40;;;6.30;99.90;;;;;;4966816;28;20484;-72
2023/01/09 08:03:16;;;;;;;2.10;1.17;;;6.20;99.90;;;;;;4966911;28;20447;-72
2023/01/09 08:05:43;;;;;;;3.03;1.13;;;6.30;99.90;;;;;;4966801;28;20986;-71
2023/01/09 08:08:10;;;;;;;3.77;1.43;;;6.30;99.90;;;;;;4966167;28;20448;-72
2023/01/09 08:10:38;;;;;;;1.90;0.97;;;6.30;99.90;;;;;;4966802;28;20476;-72
2023/01/09 08:13:05;;;;;;;1.60;1.10;;;6.30;99.90;;;;;;4966607;28;20463;-72
2023/01/09 08:15:32;;;;;;;1.53;1.20;;;6.30;99.90;;;;;;4966615;28;20459;-72
2023/01/09 08:17:59;;;;;;;3.50;1.73;;;6.30;99.90;;;;;;4965501;28;20899;-72
2023/01/09 08:20:26;;;;;;;1.93;1.10;;;6.30;99.90;;;;;;4966474;28;20452;-72
2023/01/09 08:22:53;;;;;;;3.57;1.40;;;6.30;99.90;;;;;;4966741;28;20459;-72
2023/01/09 08:25:20;;;;;;;4.10;1.33;;;6.30;99.90;;;;;;4966737;28;20460;-72
2023/01/09 08:27:48;;;;;;;1.20;1.10;;;6.30;99.90;;;;;;4965070;28;20455;-72
2023/01/09 08:30:16;;;;;;;1.33;1.23;;;6.30;99.90;;;;;;4966213;28;20455;-72
2023/01/09 08:32:43;;;;;;;1.60;1.10;;;6.30;99.90;;;;;;4966190;28;20455;-72
2023/01/09 08:35:10;;;;;;;2.10;1.07;;;6.40;99.90;;;;;;4966320;28;20463;-72
2023/01/09 08:37:37;;;;;;;1.03;1.00;;;6.50;99.90;;;;;;4965954;28;20495;-72
2023/01/09 08:40:04;;;;;;;4.90;1.33;;;6.50;99.90;;;;;;4973104;28;20452;-72
2023/01/09 08:48:01;;;;;;;1.30;1.20;;;6.80;99.90;;;;;;4968133;28;20967;-72
2023/01/09 08:50:28;;;;;;;2.30;1.33;;;6.90;99.90;;;;;;4966852;28;20467;-72
2023/01/09 08:52:55;;;;;;;2.00;1.10;;;6.90;99.90;;;;;;4966644;28;20463;-72
2023/01/09 08:55:22;;;;;;;1.60;1.20;;;7.00;99.90;;;;;;4966611;28;21160;-72
2023/01/09 08:57:49;;;;;;;1.87;1.20;;;7.10;99.90;;;;;;4965480;28;20496;-72
2023/01/09 09:00:20;;;;;;;1.40;1.20;;;7.10;99.90;;;;;;4966127;28;20460;-74
2023/01/09 09:02:51;;;;;;;3.70;1.20;;;7.20;99.90;;;;;;4966719;28;20457;-73
2023/01/09 09:05:18;;;;;;;2.87;1.20;;;7.30;99.90;;;;;;4966070;28;20433;-74
2023/01/09 09:07:48;;;;;;;4.17;1.30;;;7.30;99.90;;;;;;4965731;28;20456;-73
2023/01/09 09:10:15;;;;;;;2.30;1.10;;;7.40;99.90;;;;;;4966619;28;20463;-73
2023/01/09 09:12:42;;;;;;;2.50;1.20;;;7.50;99.90;;;;;;4966617;28;20452;-73
2023/01/09 09:15:18;;;;;;;5.07;1.50;;;7.50;99.90;;;;;;4966944;28;20467;-72
2023/01/09 09:17:52;;;;;;;1.87;1.50;;;7.50;99.90;;;;;;4965579;28;21041;-72
2023/01/09 09:20:19;;;;;;;2.73;1.33;;;7.50;99.90;;;;;;4966444;28;20551;-72
2023/01/09 09:22:46;;;;;;;1.80;1.03;;;7.60;99.90;;;;;;4966501;28;20452;-73
2023/01/09 09:25:13;;;;;;;3.55;1.40;;;7.50;99.90;;;;;;4966166;28;20895;-72
2023/01/09 09:27:40;;;;;;;3.60;1.33;;;7.60;99.90;;;;;;4965627;28;20696;-73
2023/01/09 09:30:09;;;;;;;2.40;1.07;;;7.70;99.90;;;;;;4970314;28;20461;-73
2023/01/09 09:32:36;;;;;;;6.83;1.50;;;7.70;99.90;;;;;;4969602;28;20837;-73
2023/01/09 09:35:05;;;;;;;7.67;1.30;;;7.80;99.90;;;;;;4969915;28;20455;-72
2023/01/09 09:37:32;;;;;;;2.23;1.10;;;7.90;99.90;;;;;;4968729;28;20492;-71
2023/01/09 09:39:59;;;;;;;3.27;1.50;;;8.00;99.90;;;;;;4969828;28;20456;-71
2023/01/09 09:46:00;;;;;;;6.13;1.57;;;8.10;99.90;;;;;;4961212;28;20609;-72
2023/01/09 09:48:35;;;;;;;2.53;1.50;;;8.10;99.90;;;;;;4968854;28;20439;-72
2023/01/09 09:51:31;;;;;;;4.83;1.70;;;8.10;99.90;;;;;;4969197;28;20523;-72
2023/01/09 09:54:02;;;;;;;3.23;1.20;;;8.10;99.90;;;;;;4949610;29;20458;-72
2023/01/09 09:56:34;;;;;;;6.63;1.40;;;8.00;99.90;;;;;;4949126;28;20997;-72
2023/01/09 09:59:04;;;;;;;7.30;1.47;;;7.90;99.90;;;;;;4949867;28;20484;-71
2023/01/09 10:01:39;;;;;;;1.87;1.07;;;7.90;99.90;;;;;;4949887;28;20500;-71
2023/01/09 10:04:10;;;;;;;2.97;1.10;;;7.90;99.90;;;;;;4950008;28;20841;-73
2023/01/09 10:06:43;;;;;;;4.10;1.30;;;8.00;99.90;;;;;;4961681;28;20532;-72
2023/01/09 10:09:18;;;;;;;2.30;1.33;;;8.20;99.90;;;;;;4969598;28;20223;-72
2023/01/09 10:11:52;;;;;;;4.67;1.30;;;8.20;99.90;;;;;;4969210;28;20475;-72
2023/01/09 10:14:19;;;;;;;4.17;1.13;;;8.20;99.90;;;;;;4968851;28;20455;-73
2023/01/09 10:17:02;;;;;;;2.33;1.30;;;8.10;99.90;;;;;;4968245;28;20456;-72
2023/01/09 10:19:41;;;;;;;3.87;1.30;;;8.10;99.90;;;;;;4968506;28;20440;-72
2023/01/09 10:22:21;;;;;;;2.83;1.40;;;8.10;99.90;;;;;;4968799;28;20559;-72
2023/01/09 10:25:04;;;;;;;3.60;1.70;;;8.00;99.90;;;;;;4968902;28;20461;-72
2023/01/09 10:27:44;;;;;;;2.10;1.30;;;8.10;99.90;;;;;;4967979;28;20464;-72
2023/01/09 10:30:27;;;;;;;2.23;1.10;;;8.10;99.90;;;;;;4969112;28;20449;-72
2023/01/09 10:33:06;;;;;;;2.43;1.03;;;8.10;99.90;;;;;;4969093;28;20445;-72
2023/01/09 10:35:50;;;;;;;4.13;1.73;;;8.10;99.90;;;;;;4986411;28;20454;-73
2023/01/09 10:38:24;;;;;;;2.97;1.50;;;8.20;99.90;;;;;;4987331;28;20497;-73
2023/01/09 10:40:56;;;;;;;4.00;2.10;;;8.10;99.90;;;;;;4987642;28;20471;-72
2023/01/09 10:43:29;;;;;;;1.83;1.37;;;8.20;99.90;;;;;;4988126;28;20455;-73
2023/01/09 10:46:00;;;;;;;3.10;1.53;;;8.20;99.90;;;;;;4987342;28;20539;-72
2023/01/09 10:48:32;;;;;;;6.17;1.40;;;8.20;99.90;;;;;;4986365;28;20908;-72
2023/01/09 10:50:59;;;;;;;5.50;2.07;;;8.10;99.90;;;;;;4986349;28;20479;-72
2023/01/09 10:53:30;;;;;;;4.70;1.40;;;8.20;99.90;;;;;;4987253;28;20478;-73
2023/01/09 10:56:03;;;;;;;4.27;1.57;;;8.20;99.90;;;;;;4987092;28;20487;-71
2023/01/09 10:58:31;;;;;;;2.03;1.37;;;8.30;99.90;;;;;;4987000;28;21057;-72
2023/01/09 11:01:00;;;;;;;4.77;1.50;;;8.20;99.90;;;;;;4987137;28;20483;-66
2023/01/09 11:03:28;;;;;;;1.80;1.27;;;8.20;99.90;;;;;;4987191;28;20459;-66
2023/01/09 11:05:57;;;;;;;5.40;1.40;;;8.40;99.90;;;;;;4986996;28;20498;-66
2023/01/09 11:08:30;;;;;;;2.40;1.27;;;8.40;99.90;;;;;;4987073;28;20452;-67
2023/01/09 11:10:58;;;;;;;4.63;1.53;;;8.70;99.90;;;;;;4987593;28;20875;-66
2023/01/09 11:13:28;;;;;;;5.80;1.77;;;8.80;99.90;;;;;;4987205;28;20452;-66
2023/01/09 11:16:00;;;;;;;2.97;1.33;;;9.00;99.90;;;;;;4986630;28;20514;-66
2023/01/09 11:18:28;;;;;;;2.90;1.63;;;9.10;99.90;;;;;;4985298;28;20486;-66
2023/01/09 11:20:54;;;;;;;5.40;1.60;;;9.30;99.90;;;;;;4987134;28;20479;-67
2023/01/09 11:23:29;;;;;;;2.30;1.37;;;9.40;99.90;;;;;;4986811;28;20502;-72
2023/01/09 11:25:57;;;;;;;3.87;1.93;;;9.50;99.90;;;;;;4986549;28;20566;-73
2023/01/09 11:28:24;;;;;;;4.90;1.40;;;9.40;99.90;;;;;;4986743;28;20936;-73
2023/01/09 11:30:58;;;;;;;2.73;1.23;;;9.40;99.90;;;;;;4986292;28;20478;-73
2023/01/09 11:33:27;;;;;;;4.27;1.37;;;9.40;99.90;;;;;;4987008;28;20463;-72
2023/01/09 11:36:01;;;;;;;4.03;1.20;;;9.30;99.90;;;;;;4986354;28;20493;-73
2023/01/09 11:38:30;;;;;;;3.27;1.53;;;9.20;99.90;;;;;;4986413;28;20553;-73
2023/01/09 11:41:00;;;;;;;5.00;1.60;;;9.20;99.90;;;;;;4986614;28;20475;-73
2023/01/09 11:43:33;;;;;;;4.00;1.50;;;9.00;99.90;;;;;;4986637;28;20825;-73
2023/01/09 11:46:02;;;;;;;5.70;1.60;;;9.10;99.90;;;;;;4986381;28;20462;-74
2023/01/09 11:48:33;;;;;;;1.67;1.10;;;9.00;99.90;;;;;;4986716;28;20536;-72
2023/01/09 11:51:04;;;;;;;3.70;1.93;;;9.00;99.90;;;;;;4985712;28;20484;-73
2023/01/09 11:53:45;;;;;;;3.73;1.30;;;9.00;99.90;;;;;;4985918;28;20439;-73
2023/01/09 11:56:17;;;;;;;3.47;1.50;;;9.10;99.90;;;;;;4985615;28;20451;-74
2023/01/09 11:58:45;;;;;;;5.50;1.57;;;9.10;99.90;;;;;;4986511;28;20518;-73
2023/01/09 12:01:30;;;;;;;2.37;1.77;;;9.10;99.90;;;;;;4986365;28;20491;-73
2023/01/09 12:04:22;;;;;;;3.13;1.27;;;9.00;99.90;;;;;;4986789;28;20443;-74
2023/01/09 12:07:02;;;;;;;4.97;1.83;;;9.00;99.90;;;;;;4986007;28;20440;-73
2023/01/09 12:09:41;;;;;;;4.63;1.53;;;9.10;99.90;;;;;;4986511;28;20432;-74
2023/01/09 12:12:21;;;;;;;3.43;1.37;;;9.10;99.90;;;;;;4986052;28;20466;-73
2023/01/09 12:15:00;;;;;;;5.43;1.43;;;9.10;99.90;;;;;;4986797;28;20431;-75
2023/01/09 12:17:59;;;;;;;3.10;1.20;;;9.10;99.90;;;;;;4985342;28;20463;-74
2023/01/09 12:20:45;;;;;;;5.70;1.53;;;9.10;99.90;;;;;;4963589;28;20819;-74
2023/01/09 12:23:24;;;;;;;7.80;1.57;;;8.90;99.90;;;;;;4986259;28;20455;-74
2023/01/09 12:26:03;;;;;;;3.40;1.40;;;8.90;99.90;;;;;;4986102;28;20436;-74
2023/01/09 12:28:55;;;;;;;1.40;1.30;;;8.80;99.90;;;;;;4985898;28;20448;-77
2023/01/09 12:31:41;;;;;;;3.23;1.20;;;8.80;99.90;;;;;;4984161;28;20475;-74
2023/01/09 12:34:22;;;;;;;1.83;1.33;;;8.80;99.90;;;;;;4985313;28;20452;-74
2023/01/09 12:36:58;;;;;;;5.37;1.70;;;8.80;99.90;;;;;;4984500;28;20943;-74
2023/01/09 12:39:33;;;;;;;2.73;1.20;;;8.60;99.90;;;;;;4985430;28;20849;-71
2023/01/09 12:42:30;;;;;;;4.20;2.10;;;8.60;99.90;;;;;;4985025;28;21048;-73
2023/01/09 12:45:01;;;;;;;4.97;1.60;;;8.60;99.90;;;;;;4985061;28;20466;-75
2023/01/09 12:47:54;;;;;;;2.47;1.70;;;8.60;99.90;;;;;;4984586;28;20436;-74
2023/01/09 12:50:53;;;;;;;2.90;1.40;;;8.60;99.90;;;;;;4975706;28;20467;-75
2023/01/09 12:53:25;;;;;;;7.00;1.80;;;8.60;99.90;;;;;;4977147;28;20468;-75
2023/01/09 12:56:00;;;;;;;4.27;1.70;;;8.50;99.90;;;;;;4984396;28;20520;-75
2023/01/09 12:58:36;;;;;;;2.37;1.60;;;8.30;99.90;;;;;;4984409;28;20482;-74
2023/01/09 13:01:08;;;;;;;6.03;2.40;;;8.30;99.90;;;;;;4984681;28;20487;-74
2023/01/09 13:03:41;;;;;;;4.73;2.37;;;8.30;99.90;;;;;;4986712;28;20455;-74
2023/01/09 13:06:14;;;;;;;5.53;2.73;;;8.20;99.90;;;;;;4987974;28;20451;-74
2023/01/09 13:08:45;;;;;;;5.53;1.93;;;8.20;99.90;;;;;;4988719;28;20439;-74
2023/01/09 13:11:16;;;;;;;7.77;1.73;;;8.10;99.90;;;;;;4988987;28;20490;-74
2023/01/09 13:13:48;;;;;;;5.60;1.30;;;7.90;99.90;;;;;;4989174;28;20443;-73
2023/01/09 13:16:18;;;;;;;4.83;1.63;;;7.90;99.90;;;;;;4988137;28;20476;-74
2023/01/09 13:18:49;;;;;;;3.27;1.50;;;7.60;99.90;;;;;;4988947;28;20494;-74
2023/01/09 13:21:17;;;;;;;2.07;1.70;;;7.40;99.90;;;;;;4988556;28;20866;-73
2023/01/09 13:23:49;;;;;;;6.57;1.63;;;7.40;99.90;;;;;;4989278;28;20455;-77
2023/01/09 13:26:21;;;;;;;6.43;1.73;;;7.40;99.90;;;;;;4988908;28;20472;-75
2023/01/09 13:28:55;;;;;;;4.53;1.93;;;7.40;99.90;;;;;;4989033;28;20440;-77
2023/01/09 13:32:04;;;;;;;3.80;2.47;;;7.40;99.90;;;;;;4990241;28;20486;-74
2023/01/09 13:34:32;;;;;;;2.30;1.70;;;7.50;99.90;;;;;;4979575;28;20471;-75
2023/01/09 13:37:00;;;;;;;3.87;2.43;;;7.50;99.90;;;;;;4989185;28;20460;-75
2023/01/09 13:39:31;;;;;;;7.17;2.40;;;7.40;99.90;;;;;;4989351;28;21026;-74
2023/01/09 13:44:47;;;;;;;8.03;2.13;;;7.40;99.90;;;;;;4989824;28;21081;-77
2023/01/09 13:47:18;;;;;;;9.37;2.50;;;7.50;99.90;;;;;;4989239;28;20953;-77
2023/01/09 13:50:20;;;;;;;4.50;1.93;;;7.50;99.90;;;;;;4989619;28;20932;-74
2023/01/09 13:52:47;;;;;;;4.80;2.33;;;7.50;99.90;;;;;;4991474;28;20517;-77
2023/01/09 13:55:28;;;;;;;5.80;1.63;;;7.50;99.90;;;;;;4990521;28;20466;-74
2023/01/09 13:58:25;;;;;;;4.23;1.80;;;7.50;99.90;;;;;;4989298;28;20506;-78
2023/01/09 14:00:56;;;;;;;2.03;1.40;;;7.50;99.90;;;;;;4989550;28;21059;-78
2023/01/09 14:03:27;;;;;;;9.13;2.80;;;7.50;99.90;;;;;;4989292;28;20452;-76
2023/01/09 14:06:16;;;;;;;2.23;1.63;;;7.50;99.90;;;;;;4988862;28;20462;-75
2023/01/09 14:08:44;;;;;;;2.30;1.97;;;7.60;99.90;;;;;;4989749;28;20459;-77
2023/01/09 14:11:19;;;;;;;1.73;1.40;;;7.70;99.90;;;;;;4990032;28;21015;-77
2023/01/09 14:13:52;;;;;;;2.50;1.33;;;7.60;99.90;;;;;;4990724;28;20455;-77
2023/01/09 14:16:23;;;;;;;2.10;1.27;;;7.50;99.90;;;;;;4988663;28;20432;-76
2023/01/09 14:18:52;;;;;;;3.33;1.37;;;7.50;99.90;;;;;;4990158;28;20486;-76
2023/01/09 14:21:20;;;;;;;2.93;1.40;;;7.40;99.90;;;;;;4989869;28;20591;-77
2023/01/09 14:23:50;;;;;;;7.50;1.80;;;7.50;99.90;;;;;;4989757;28;21444;-78
2023/01/09 14:26:20;;;;;;;2.53;1.20;;;7.40;99.90;;;;;;4988944;28;20452;-77
2023/01/09 14:28:47;;;;;;;2.37;1.27;;;7.30;99.90;;;;;;4989696;28;20975;-76
2023/01/09 14:31:29;;;;;;;2.97;1.30;;;7.20;99.90;;;;;;4989767;28;20506;-77
2023/01/09 14:34:25;;;;;;;2.33;1.50;;;7.10;99.90;;;;;;4989360;28;20998;-77
2023/01/09 14:36:54;;;;;;;2.20;1.37;;;7.10;99.90;;;;;;4989107;28;20448;-77
2023/01/09 14:39:23;;;;;;;3.40;1.40;;;7.10;99.90;;;;;;4989434;28;20497;-76
2023/01/09 14:42:04;;;;;;;2.30;1.20;;;7.10;99.90;;;;;;4989168;28;20509;-79
2023/01/09 14:44:35;;;;;;;3.03;1.30;;;7.20;99.90;;;;;;4989670;28;20450;-76
2023/01/09 14:47:12;;;;;;;3.33;1.00;;;7.30;99.90;;;;;;4988877;28;20846;-76
2023/01/09 14:49:43;;;;;;;3.63;1.60;;;7.30;99.90;;;;;;4989494;28;20459;-78
2023/01/09 14:52:17;;;;;;;2.00;1.20;;;7.30;99.90;;;;;;4989237;28;20475;-76
2023/01/09 14:54:44;;;;;;;1.37;1.27;;;7.20;99.90;;;;;;4989723;28;20436;-76
2023/01/09 14:57:25;;;;;;;1.30;1.20;;;7.30;99.90;;;;;;4988625;28;20550;-76
2023/01/09 14:59:56;;;;;;;1.27;1.17;;;7.20;99.90;;;;;;4989327;28;20498;-75
2023/01/09 15:02:27;;;;;;;4.87;1.27;;;7.10;99.90;;;;;;4988731;28;20487;-75
2023/01/09 15:04:56;;;;;;;2.00;1.33;;;7.10;99.90;;;;;;4988999;28;20976;-75
2023/01/09 15:07:29;;;;;;;2.60;1.13;;;7.10;99.90;;;;;;4988465;28;20498;-76
2023/01/09 15:10:01;;;;;;;3.40;1.40;;;7.10;99.90;;;;;;4989082;28;20440;-75
2023/01/09 15:12:28;;;;;;;1.70;1.40;;;7.00;99.90;;;;;;4988699;28;20825;-75
2023/01/09 15:14:58;;;;;;;4.10;1.40;;;7.10;99.90;;;;;;4988518;28;20464;-77
2023/01/09 15:17:30;;;;;;;1.50;1.40;;;7.10;99.90;;;;;;4988264;28;20455;-77
2023/01/09 15:19:59;;;;;;;2.83;1.27;;;7.00;99.90;;;;;;4987743;28;20474;-76
2023/01/09 15:22:29;;;;;;;1.93;1.20;;;7.10;99.90;;;;;;4987325;28;21323;-76
2023/01/09 15:24:57;;;;;;;2.93;1.47;;;7.00;99.90;;;;;;4987985;28;20460;-76
2023/01/09 15:27:24;;;;;;;2.93;1.47;;;7.10;99.90;;;;;;4986469;28;20512;-76
2023/01/09 15:29:52;;;;;;;1.30;1.20;;;7.10;99.90;;;;;;4988130;28;20778;-75
2023/01/09 15:32:23;;;;;;;2.30;1.20;;;7.00;99.90;;;;;;4987581;28;20482;-75
2023/01/09 15:34:53;;;;;;;2.70;1.70;;;7.10;99.90;;;;;;4986913;28;20551;-75
2023/01/09 15:37:27;;;;;;;2.70;1.70;;;7.10;99.90;;;;;;4986402;28;21261;-75
2023/01/09 15:39:54;;;;;;;1.60;1.40;;;7.10;99.90;;;;;;4987047;28;20525;-73
2023/01/09 15:45:18;;;;;;;3.33;1.53;;;7.00;99.90;;;;;;4987723;28;20418;-75
2023/01/09 15:47:45;;;;;;;1.40;1.30;;;6.90;99.90;;;;;;4987457;28;20934;-76
2023/01/09 15:50:15;;;;;;;1.60;1.50;;;6.80;99.90;;;;;;4980790;28;20455;-74
2023/01/09 15:52:43;;;;;;;2.17;1.30;;;6.70;99.90;;;;;;4968241;28;20460;-74
2023/01/09 15:55:23;;;;;;;1.20;1.10;;;6.50;99.90;;;;;;4967043;28;20460;-73
2023/01/09 15:57:52;;;;;;;1.10;1.00;;;6.40;99.90;;;;;;4966913;28;20456;-73
2023/01/09 16:00:42;;;;;;;2.60;1.33;;;6.30;99.90;;;;;;4966911;28;20503;-73
2023/01/09 16:03:18;;;;;;;1.60;1.50;;;6.20;99.90;;;;;;4966980;28;20876;-74
2023/01/09 16:05:49;;;;;;;3.73;1.50;;;6.20;99.90;;;;;;4967015;28;20519;-73
2023/01/09 16:08:23;;;;;;;2.33;1.70;;;6.20;99.90;;;;;;4967260;28;20429;-73
2023/01/09 16:10:53;;;;;;;7.80;2.40;;;6.20;99.90;;;;;;4967181;28;20476;-73
2023/01/09 16:13:23;;;;;;;4.53;2.43;;;6.20;99.90;;;;;;4966644;28;20460;-73
2023/01/09 16:15:51;;;;;;;2.40;1.53;;;6.10;99.90;;;;;;4967346;28;20452;-74
2023/01/09 16:18:27;;;;;;;1.97;1.80;;;6.10;99.90;;;;;;4966667;28;20475;-73
2023/01/09 16:21:21;;;;;;;1.60;1.50;;;6.10;99.90;;;;;;4966586;28;21008;-72
2023/01/09 16:23:53;;;;;;;5.33;1.60;;;6.00;99.90;;;;;;4966531;28;20460;-73
2023/01/09 16:26:24;;;;;;;1.60;1.50;;;6.00;99.90;;;;;;4966097;28;20451;-73
2023/01/09 16:28:50;;;;;;;1.93;1.60;;;6.10;99.90;;;;;;4966704;28;20453;-73
2023/01/09 16:31:22;;;;;;;1.63;1.50;;;6.10;99.90;;;;;;4966483;28;20477;-73
2023/01/09 16:33:53;;;;;;;2.73;1.80;;;6.20;99.90;;;;;;4966830;28;20499;-73
2023/01/09 16:36:22;;;;;;;1.70;1.60;;;6.30;99.90;;;;;;4965914;28;20523;-73
2023/01/09 16:38:48;;;;;;;4.23;1.93;;;6.30;99.90;;;;;;4968785;28;20456;-73
2023/01/09 16:44:04;;;;;;;3.17;2.00;;;6.30;99.90;;;;;;4970231;28;20435;-73
2023/01/09 16:46:34;;;;;;;3.10;1.83;;;6.30;99.90;;;;;;4969412;28;20496;-73
2023/01/09 16:49:02;;;;;;;3.40;1.73;;;6.40;99.90;;;;;;4970322;28;20453;-73
2023/01/09 16:51:30;;;;;;;2.70;1.83;;;6.50;99.90;;;;;;4970353;28;20555;-73
2023/01/09 16:53:57;;;;;;;2.30;2.03;;;6.60;99.90;;;;;;4970330;28;20462;-73
2023/01/09 16:56:26;;;;;;;2.60;2.40;;;6.60;99.90;;;;;;4969575;28;20451;-73
2023/01/09 16:58:53;;;;;;;2.40;2.20;;;6.70;99.90;;;;;;4969987;28;20448;-73
2023/01/09 17:01:21;;;;;;;3.10;2.80;;;6.70;99.90;;;;;;4969581;28;20536;-73
2023/01/09 17:03:48;;;;;;;3.60;2.70;;;6.70;99.90;;;;;;4970101;28;20949;-73
2023/01/09 17:06:19;;;;;;;3.23;2.93;;;6.70;99.90;;;;;;4969556;28;20883;-73
2023/01/09 17:08:47;;;;;;;5.13;3.10;;;6.70;99.90;;;;;;4971250;28;20519;-75
2023/01/09 17:11:20;;;;;;;3.70;3.20;;;6.70;99.90;;;;;;4969991;28;20472;-72
2023/01/09 17:13:47;;;;;;;5.40;3.50;;;6.70;99.90;;;;;;4968317;28;20452;-72
2023/01/09 17:16:15;;;;;;;6.47;3.57;;;6.70;99.90;;;;;;4968433;28;20452;-72
2023/01/09 17:18:43;;;;;;;4.40;3.90;;;6.80;99.90;;;;;;4969010;28;20584;-72
2023/01/09 17:21:15;;;;;;;5.50;4.00;;;6.80;99.90;;;;;;4968286;28;20492;-73
2023/01/09 17:23:43;;;;;;;6.40;4.00;;;6.80;99.90;;;;;;4969181;28;20798;-73
2023/01/09 17:29:01;;;;;;;9.07;4.50;;;6.80;99.90;;;;;;4968390;28;20440;-73
2023/01/09 17:31:29;;;;;;;10.23;4.37;;;6.90;99.90;;;;;;4968396;28;21332;-73
2023/01/09 17:33:56;;;;;;;12.23;4.50;;;6.90;99.90;;;;;;4968551;28;20455;-72
2023/01/09 17:36:27;;;;;;;12.93;8.00;;;6.90;99.90;;;;;;4967766;28;20452;-73
2023/01/09 17:38:54;;;;;;;27.10;16.17;;;6.90;99.90;;;;;;4968470;28;20459;-73
2023/01/09 17:41:23;;;;;;;13.10;7.60;;;6.90;99.90;;;;;;4968420;28;20501;-73
2023/01/09 17:43:50;;;;;;;10.13;6.97;;;6.90;99.90;;;;;;4967870;28;20460;-73
2023/01/09 17:46:22;;;;;;;8.00;5.70;;;6.90;99.90;;;;;;4968389;28;20455;-73
2023/01/09 17:48:48;;;;;;;10.27;6.80;;;6.90;99.90;;;;;;4968402;28;20543;-73
2023/01/09 17:51:15;;;;;;;8.53;5.20;;;6.90;99.90;;;;;;4967504;28;20460;-73
2023/01/09 17:53:42;;;;;;;5.03;3.73;;;6.90;99.90;;;;;;4968871;28;20452;-73
2023/01/09 17:56:13;;;;;;;4.87;3.33;;;6.80;99.90;;;;;;4968124;28;20464;-73
2023/01/09 17:58:44;;;;;;;3.10;2.37;;;6.80;99.90;;;;;;4969393;28;20819;-73
2023/01/09 18:01:12;;;;;;;5.57;2.90;;;6.70;99.90;;;;;;4968935;28;20531;-73
2023/01/09 18:03:38;;;;;;;3.57;2.63;;;6.70;99.90;;;;;;4968945;28;21287;-72
2023/01/09 18:06:06;;;;;;;4.70;2.40;;;6.50;99.90;;;;;;4968355;28;20922;-72
2023/01/09 18:08:32;;;;;;;3.20;2.90;;;6.50;99.90;;;;;;4968964;28;20455;-73
2023/01/09 18:11:02;;;;;;;2.67;2.17;;;6.50;99.90;;;;;;4968475;28;20484;-73
2023/01/09 18:13:29;;;;;;;2.50;2.10;;;6.50;99.90;;;;;;4968960;28;20461;-72
2023/01/09 18:15:57;;;;;;;4.67;3.00;;;6.50;99.90;;;;;;4968568;28;20457;-72
2023/01/09 18:18:24;;;;;;;6.07;2.63;;;6.50;99.90;;;;;;4968636;28;20455;-72
2023/01/09 18:20:51;;;;;;;3.47;2.57;;;6.50;99.90;;;;;;4968687;28;20499;-72
2023/01/09 18:23:18;;;;;;;3.83;2.67;;;6.50;99.90;;;;;;4968794;28;21257;-72
2023/01/09 18:25:45;;;;;;;5.17;4.10;;;6.50;99.90;;;;;;4969777;28;20463;-76
2023/01/09 18:28:14;;;;;;;7.90;4.77;;;6.50;99.90;;;;;;4971473;28;20460;-75
2023/01/09 18:30:43;;;;;;;14.43;6.37;;;6.50;99.90;;;;;;4971597;28;20472;-75
2023/01/09 18:33:11;;;;;;;11.07;4.87;;;6.40;99.90;;;;;;4969543;28;20459;-76
2023/01/09 18:35:38;;;;;;;4.93;2.93;;;6.40;99.90;;;;;;4969992;28;20452;-76
2023/01/09 18:38:05;;;;;;;2.70;2.20;;;6.40;99.90;;;;;;4969724;28;20514;-75